• Join FlightAware (Why Join?)
  • Login
  • US Flag 
08:22PM EDT


 

Airport Tracker/Info


-or-


 

Live Flight TrackerFlight Track Log ✈ N140TS ✈ 23-Apr-2012 ✈ KDAL - KESF

Flight Track Log - Related Links

Times and Time Zones

All times are in EDT time to prevent confusion due to time zone crossing. See the N140TS flight status page for this flight to view local times or setup timezone preferences in your user account.

Time Position Orientation Groundspeed Altitude Reporting Facility
EDT Latitude Longitude Course Direction KTS MPH feet Rate Location/Type
02:29PM 32.8769 -96.8931 318° Northwest 207 238 2,400  Level FAA TRACON SMA TRACON (SMA)
02:30PM 32.9100 -96.9281 352° North 264 304 4,300 3,300 Climbing FAA TRACON SMA TRACON (SMA)
02:31PM 32.9572 -96.9356 45° Northeast 253 291 6,900 2,040 Climbing FAA TRACON SMA TRACON (SMA)
02:31PM 32.9903 -96.8961 106° East 263 303 7,000 900 Climbing FAA TRACON SMA TRACON (SMA)
02:32PM 32.9744 -96.8297 126° Southeast 325 374 8,100 1,980 Climbing FAA TRACON SMA TRACON (SMA)
02:33PM 32.9394 -96.7731 114° Southeast 349 402 9,700 2,580 Climbing FAA TRACON SMA TRACON (SMA)
02:33PM 32.9119 -96.6986 115° Southeast 357 411 11,500 2,400 Climbing FAA TRACON SMA TRACON (SMA)
02:34PM 32.8856 -96.6303 115° Southeast 371 427 13,000 2,340 Climbing FAA TRACON SMA TRACON (SMA)
02:35PM 32.8547 -96.5514 107° East 381 438 14,700 2,520 Climbing FAA TRACON SMA TRACON (SMA)
02:35PM 32.8331 -96.4683 103° East 381 438 16,500 2,280 Climbing FAA TRACON SMA TRACON (SMA)
02:36PM 32.8181 -96.3933 104° East 380 437 17,800 2,340 Climbing FAA TRACON SMA TRACON (SMA)
02:37PM 32.7997 -96.3089 105° East 383 441 19,500 2,460 Climbing FAA TRACON SMA TRACON (SMA)
02:37PM 32.7811 -96.2239 106° East 383 441 21,100 2,040 Climbing FAA TRACON SMA TRACON (SMA)
02:38PM 32.7633 -96.1478 106° East 389 448 22,300 1,200 Climbing FAA TRACON SMA TRACON (SMA)
02:39PM 32.7417 -96.0578 104° East 415 478 22,800 480 Climbing FAA TRACON SMA TRACON (SMA)
02:39PM 32.7214 -95.9625 105° East 434 499 23,000 120 Climbing FAA TRACON SMA TRACON (SMA)
02:40PM 32.7042 -95.8872 110° East 439 505 23,000  Level FAA TRACON SMA TRACON (SMA)
02:41PM 32.6617 -95.7453 105° East 436 502 23,000  Level Fort Worth Center
02:42PM 32.6283 -95.6003 104° East 448 516 23,000  Level Fort Worth Center
02:43PM 32.5947 -95.4433 108° East 448 516 23,000  Level Fort Worth Center
02:44PM 32.5569 -95.3061 107° East 443 510 23,000  Level Fort Worth Center
02:45PM 32.5256 -95.1836 107° East 437 503 23,000  Level Fort Worth Center
02:46PM 32.4897 -95.0489 105° East 437 503 23,000  Level Fort Worth Center
02:47PM 32.4578 -94.9119 107° East 432 497 23,000  Level Fort Worth Center
02:48PM 32.4217 -94.7750 113° Southeast 432 497 23,000  Level Fort Worth Center
02:49PM 32.3706 -94.6292 117° Southeast 437 503 23,000  Level Fort Worth Center
02:50PM 32.3200 -94.5125 115° Southeast 442 509 23,000  Level Fort Worth Center
02:51PM 32.2622 -94.3669 116° Southeast 442 509 23,000  Level Fort Worth Center
02:52PM 32.2133 -94.2483 116° Southeast 442 509 23,000  Level Fort Worth Center
02:53PM 32.1556 -94.1081 116° Southeast 442 509 23,000  Level Fort Worth Center
02:54PM 32.0997 -93.9753 117° Southeast 442 509 23,000 -120 Level Fort Worth Center
02:56PM 32.0156 -93.7803 115° Southeast 437 503 22,700 -900 Descending Houston Center
02:57PM 31.9633 -93.6494 116° Southeast 437 503 20,800 -2,040 Descending Houston Center
02:57PM 31.9331 -93.5756 113° Southeast 434 499 19,700 -1,800 Descending Houston Center
02:58PM 31.9131 -93.5214 119° Southeast 432 497 19,000 -1,800 Descending Houston Center
02:58PM 31.8786 -93.4475 116° Southeast 436 502 17,900 -1,740 Descending Houston Center
02:59PM 31.8258 -93.3194 116° Southeast 434 499 16,400 -1,680 Descending Houston Center
03:00PM 31.7772 -93.2014 118° Southeast 418 481 14,600 -1,740 Descending Houston Center
03:01PM 31.7264 -93.0883 116° Southeast 396 456 12,900 -1,800 Descending Houston Center
03:02PM 31.6775 -92.9683 117° Southeast 389 448 11,000 -1,800 Descending Houston Center
03:03PM 31.6286 -92.8556 116° Southeast 385 443 9,300 -1,680 Descending Houston Center
03:04PM 31.5836 -92.7478 118° Southeast 377 434 7,700 -1,680 Descending Houston Center
03:05PM 31.5425 -92.6572 114° Southeast 354 407 6,100 -1,620 Descending Houston Center
03:06PM 31.5303 -92.6253 125° Southeast 348 400 5,500 -1,200 Descending Houston Center
03:06PM 31.5014 -92.5764 125° Southeast 302 348 4,900 -1,200 Descending Houston Center